Time;durP1;ratioP1;P1;durP2;ratioP2;P2;SDS_P1;SDS_P2;PMS_P1;PMS_P2;Temp;Humidity;BMP_temperature;BMP_pressure;BME280_temperature;BME280_humidity;BME280_pressure;Samples;Min_cycle;Max_cycle;Signal;HPM_P1;HPM_P2
2022/12/26 00:00:57;;;;;;;130.80;28.30;;;7.90;99.90;;;;;;5090552;28;20042;-47
2022/12/26 00:03:23;;;;;;;175.05;30.80;;;7.90;99.90;;;;;;5091977;28;20083;-48
2022/12/26 00:05:48;;;;;;;174.25;31.20;;;7.90;99.90;;;;;;5091641;28;20126;-45
2022/12/26 00:08:14;;;;;;;180.88;32.53;;;8.00;99.90;;;;;;5094842;27;20042;-49
2022/12/26 00:10:40;;;;;;;142.77;29.20;;;8.80;99.90;;;;;;5095310;27;20116;-46
2022/12/26 00:13:06;;;;;;;150.43;29.88;;;7.90;99.90;;;;;;5095837;27;20377;-46
2022/12/26 00:15:31;;;;;;;179.40;32.03;;;7.80;99.90;;;;;;5097342;27;20043;-47
2022/12/26 00:17:57;;;;;;;145.38;28.33;;;9.30;99.90;;;;;;5096693;28;20040;-49
2022/12/26 00:20:23;;;;;;;132.23;28.15;;;7.80;99.90;;;;;;5096002;27;20043;-45
2022/12/26 00:22:49;;;;;;;152.40;29.85;;;9.10;99.90;;;;;;5096630;27;20063;-45
2022/12/26 00:25:14;;;;;;;152.40;29.92;;;7.80;99.90;;;;;;5097892;27;20079;-48
2022/12/26 00:27:40;;;;;;;131.27;27.30;;;8.00;99.90;;;;;;5096640;27;20031;-45
2022/12/26 00:30:07;;;;;;;132.77;27.70;;;7.90;99.90;;;;;;5096636;27;20108;-47
2022/12/26 00:32:32;;;;;;;116.60;26.25;;;7.90;99.90;;;;;;5097326;27;20036;-45
2022/12/26 00:34:58;;;;;;;132.10;28.10;;;8.20;99.90;;;;;;5097519;27;20032;-44
2022/12/26 00:37:24;;;;;;;154.40;29.83;;;8.00;99.90;;;;;;5094547;27;20047;-49
2022/12/26 00:39:50;;;;;;;124.38;27.65;;;8.30;99.90;;;;;;5094705;28;20071;-44
2022/12/26 00:42:15;;;;;;;133.95;27.70;;;7.60;99.90;;;;;;5095243;28;20488;-46
2022/12/26 00:44:41;;;;;;;130.23;28.50;;;7.60;99.90;;;;;;5095013;27;20040;-48
2022/12/26 00:47:07;;;;;;;121.13;27.08;;;8.40;99.90;;;;;;5094476;27;20032;-48
2022/12/26 00:49:32;;;;;;;130.27;28.17;;;7.90;99.90;;;;;;5094889;27;20112;-44
2022/12/26 00:51:58;;;;;;;143.80;30.08;;;9.20;99.90;;;;;;5094931;27;20047;-46
2022/12/26 00:54:24;;;;;;;154.27;30.20;;;8.30;99.90;;;;;;5093189;27;20126;-49
2022/12/26 00:56:50;;;;;;;117.40;26.80;;;7.70;99.90;;;;;;5094452;27;20515;-47
2022/12/26 00:59:16;;;;;;;125.03;28.13;;;7.70;99.90;;;;;;5094476;27;23015;-47
2022/12/26 01:01:41;;;;;;;135.48;28.63;;;8.10;99.90;;;;;;5095516;27;20047;-46
2022/12/26 01:04:07;;;;;;;131.05;28.55;;;7.70;99.90;;;;;;5094734;27;20352;-44
2022/12/26 01:06:33;;;;;;;121.95;27.08;;;8.00;99.90;;;;;;5094592;27;20036;-44
2022/12/26 01:08:59;;;;;;;127.20;25.27;;;8.10;99.90;;;;;;5095531;27;20573;-45
2022/12/26 01:11:40;;;;;;;132.07;28.58;;;8.10;99.90;;;;;;5094724;27;20048;-44
2022/12/26 01:14:09;;;;;;;136.60;28.52;;;7.70;99.90;;;;;;5094749;27;20550;-44
2022/12/26 01:16:34;;;;;;;121.43;28.42;;;8.50;99.90;;;;;;5093671;27;20434;-49
2022/12/26 01:19:00;;;;;;;114.88;28.45;;;7.80;99.90;;;;;;5094076;28;20062;-44
2022/12/26 01:21:25;;;;;;;143.48;30.85;;;8.40;99.90;;;;;;5093203;28;20483;-45
2022/12/26 01:23:51;;;;;;;113.40;27.38;;;8.70;99.90;;;;;;5093479;28;20092;-45
2022/12/26 01:26:17;;;;;;;134.75;29.33;;;7.90;99.90;;;;;;5094886;27;20100;-44
2022/12/26 01:28:42;;;;;;;114.43;27.58;;;7.70;99.90;;;;;;5096589;27;20039;-44
2022/12/26 01:31:08;;;;;;;123.22;26.42;;;7.90;99.90;;;;;;5095387;27;20055;-48
2022/12/26 01:33:34;;;;;;;135.95;28.98;;;7.90;99.90;;;;;;5095472;27;20038;-44
2022/12/26 01:36:00;;;;;;;130.68;27.73;;;7.80;99.90;;;;;;5096768;27;20079;-45
2022/12/26 01:38:27;;;;;;;139.90;29.17;;;8.70;99.90;;;;;;5095581;27;20039;-46
2022/12/26 01:41:15;;;;;;;121.00;24.95;;;7.90;99.90;;;;;;5094906;27;20063;-45
2022/12/26 01:43:58;;;;;;;122.45;26.33;;;9.10;99.90;;;;;;5094134;27;20131;-45
2022/12/26 01:46:37;;;;;;;121.82;26.10;;;5.90;99.90;;;;;;5093354;27;20975;-45
2022/12/26 01:49:18;;;;;;;109.53;25.35;;;7.70;99.90;;;;;;5093304;27;20039;-46
2022/12/26 01:51:50;;;;;;;112.43;24.25;;;8.70;99.90;;;;;;5093505;27;20462;-50
2022/12/26 01:54:17;;;;;;;85.93;22.80;;;7.90;99.90;;;;;;5093697;27;20040;-47
2022/12/26 01:56:45;;;;;;;112.00;26.15;;;7.80;99.90;;;;;;5092819;27;20074;-45
2022/12/26 01:59:22;;;;;;;89.97;23.15;;;7.90;99.90;;;;;;5092617;28;20527;-48
2022/12/26 02:01:50;;;;;;;101.40;26.13;;;7.90;99.90;;;;;;5085739;27;20060;-45
2022/12/26 02:07:07;;;;;;;101.88;23.90;;;8.00;99.90;;;;;;5094233;28;20035;-44
2022/12/26 02:09:33;;;;;;;100.55;24.60;;;7.90;99.90;;;;;;5093269;28;20100;-46
2022/12/26 02:12:23;;;;;;;94.43;22.88;;;8.10;99.90;;;;;;5092312;28;20134;-45
2022/12/26 02:14:49;;;;;;;90.20;23.17;;;7.80;99.90;;;;;;5091527;28;20228;-48
2022/12/26 02:17:16;;;;;;;83.00;23.73;;;8.10;99.90;;;;;;5092549;27;20126;-46
2022/12/26 02:20:09;;;;;;;84.53;21.45;;;7.90;99.90;;;;;;5094378;27;20097;-45
2022/12/26 02:22:54;;;;;;;77.53;20.05;;;8.00;99.90;;;;;;5092870;27;20052;-45
2022/12/26 02:25:42;;;;;;;78.50;20.75;;;7.90;99.90;;;;;;5093281;27;20065;-45
2022/12/26 02:28:44;;;;;;;67.20;20.20;;;7.80;99.90;;;;;;5093262;28;20420;-48
2022/12/26 02:31:10;;;;;;;66.10;19.17;;;7.90;99.90;;;;;;5091385;28;20110;-50
2022/12/26 02:33:44;;;;;;;58.47;17.40;;;8.10;99.90;;;;;;5092540;27;20212;-44
2022/12/26 02:36:31;;;;;;;48.63;16.80;;;7.90;99.90;;;;;;5093520;28;20381;-46
2022/12/26 02:39:09;;;;;;;53.08;17.77;;;7.90;99.90;;;;;;5093706;27;20074;-48
2022/12/26 02:41:47;;;;;;;53.42;19.35;;;8.10;99.90;;;;;;5093978;27;20089;-47
2022/12/26 02:47:33;;;;;;;54.67;19.85;;;7.90;99.90;;;;;;5094424;27;20142;-44
2022/12/26 03:13:10;;;;;;;76.85;30.45;;;8.20;99.90;;;;;;5091053;28;20055;-47
2022/12/26 03:18:42;;;;;;;77.78;30.65;;;8.10;99.90;;;;;;5092700;28;20048;-46
2022/12/26 03:21:09;;;;;;;81.03;33.92;;;8.20;99.90;;;;;;5092035;27;20122;-48
2022/12/26 03:23:38;;;;;;;71.68;31.23;;;8.40;99.90;;;;;;5091394;28;20062;-44
2022/12/26 03:30:47;;;;;;;100.10;34.58;;;8.20;99.90;;;;;;5092212;28;20069;-49
2022/12/26 03:31:40;;;;;;;76.72;31.38;;;8.20;99.90;;;;;;5091404;28;20043;-44
2022/12/26 03:34:18;;;;;;;71.50;31.80;;;8.20;99.90;;;;;;5092285;28;20039;-48
2022/12/26 03:36:59;;;;;;;77.97;31.60;;;9.80;99.90;;;;;;5091676;28;20066;-45
2022/12/26 04:20:19;;;;;;;64.68;28.33;;;8.30;99.90;;;;;;5095244;27;20728;-49
2022/12/26 04:45:28;;;;;;;56.38;27.23;;;9.10;99.90;;;;;;5095181;28;20051;-47
2022/12/26 04:50:52;;;;;;;55.47;27.77;;;8.40;99.90;;;;;;5093833;27;20122;-43
2022/12/26 04:53:19;;;;;;;50.17;26.23;;;8.40;99.90;;;;;;5095293;28;20131;-44
2022/12/26 04:55:45;;;;;;;57.47;27.88;;;10.20;99.90;;;;;;5094741;27;20044;-44
2022/12/26 04:58:11;;;;;;;49.30;26.08;;;8.40;99.90;;;;;;5094667;27;20043;-48
2022/12/26 05:00:37;;;;;;;51.28;25.48;;;8.20;99.90;;;;;;5094400;27;20035;-47
2022/12/26 05:11:28;;;;;;;40.53;22.70;;;8.30;99.90;;;;;;5094107;28;20575;-45
2022/12/26 05:13:55;;;;;;;38.55;22.27;;;9.30;99.90;;;;;;5094413;27;20044;-50
2022/12/26 05:30:18;;;;;;;34.83;21.48;;;8.80;99.90;;;;;;5096581;27;20500;-48
2022/12/26 05:35:29;;;;;;;37.97;23.92;;;8.20;99.90;;;;;;5096164;27;20035;-44
2022/12/26 05:37:54;;;;;;;41.33;25.02;;;8.40;99.90;;;;;;5095297;27;20581;-44
2022/12/26 05:40:20;;;;;;;40.13;24.77;;;9.20;99.90;;;;;;5094322;27;20458;-45
2022/12/26 05:42:46;;;;;;;38.30;23.52;;;8.30;99.90;;;;;;5093629;27;20104;-45
2022/12/26 05:45:12;;;;;;;36.08;22.83;;;8.30;99.90;;;;;;5093436;27;20032;-47
2022/12/26 05:47:37;;;;;;;39.45;25.70;;;8.40;99.90;;;;;;5093541;27;20043;-47
2022/12/26 05:50:04;;;;;;;38.45;22.70;;;8.50;99.90;;;;;;5094035;27;20350;-46
2022/12/26 05:52:30;;;;;;;37.88;25.17;;;8.40;99.90;;;;;;5093246;27;20530;-49
2022/12/26 05:54:55;;;;;;;37.88;24.77;;;8.40;99.90;;;;;;5093159;27;20119;-45
2022/12/26 05:57:21;;;;;;;35.20;24.52;;;8.90;99.90;;;;;;5094142;27;20040;-48
2022/12/26 05:59:47;;;;;;;31.80;21.58;;;8.20;99.90;;;;;;5093192;27;20550;-47
2022/12/26 06:02:12;;;;;;;35.38;23.10;;;8.30;99.90;;;;;;5091729;27;20634;-49
2022/12/26 06:04:38;;;;;;;36.95;23.65;;;9.50;99.90;;;;;;5094007;27;20146;-47
2022/12/26 06:07:04;;;;;;;36.28;24.60;;;9.40;99.90;;;;;;5094709;27;20050;-45
2022/12/26 06:09:30;;;;;;;35.72;24.02;;;8.50;99.90;;;;;;5093032;28;20108;-45
2022/12/26 06:11:55;;;;;;;34.00;23.58;;;8.30;99.90;;;;;;5092807;27;20063;-48
2022/12/26 06:14:21;;;;;;;28.40;18.23;;;8.40;99.90;;;;;;5092481;27;20032;-46
2022/12/26 06:16:47;;;;;;;37.05;22.67;;;8.40;99.90;;;;;;5092633;27;20113;-46
2022/12/26 06:19:13;;;;;;;29.60;22.60;;;8.40;99.90;;;;;;5092959;28;20123;-45
2022/12/26 06:21:38;;;;;;;31.25;24.20;;;8.30;99.90;;;;;;5093787;28;20055;-45
2022/12/26 06:24:04;;;;;;;31.15;23.13;;;8.40;99.90;;;;;;5091760;27;20047;-45
2022/12/26 06:26:30;;;;;;;33.75;23.13;;;8.30;99.90;;;;;;5092622;28;20412;-44
2022/12/26 06:28:56;;;;;;;28.30;21.00;;;8.30;99.90;;;;;;5091754;27;20024;-49
2022/12/26 06:31:23;;;;;;;31.30;21.60;;;8.60;99.90;;;;;;5094044;28;20046;-45
2022/12/26 06:33:51;;;;;;;33.83;21.60;;;8.50;99.90;;;;;;5092795;28;20396;-45
2022/12/26 06:36:19;;;;;;;26.92;19.20;;;8.40;99.90;;;;;;5092940;27;20504;-48
2022/12/26 06:38:45;;;;;;;26.08;19.13;;;9.10;99.90;;;;;;5092367;28;20036;-49
2022/12/26 06:41:14;;;;;;;29.58;20.48;;;8.50;99.90;;;;;;5093142;27;20050;-46
2022/12/26 06:43:40;;;;;;;26.40;18.80;;;9.20;99.90;;;;;;5092408;28;20070;-45
2022/12/26 06:46:08;;;;;;;26.98;20.05;;;8.90;99.90;;;;;;5093872;27;20665;-44
2022/12/26 06:48:38;;;;;;;27.70;18.98;;;8.60;99.90;;;;;;5094277;27;20420;-46
2022/12/26 06:51:05;;;;;;;27.45;19.20;;;10.00;99.90;;;;;;5094893;28;20047;-44
2022/12/26 06:53:33;;;;;;;25.05;17.80;;;8.30;99.90;;;;;;5093620;27;20106;-44
2022/12/26 06:56:13;;;;;;;25.73;17.80;;;8.40;99.90;;;;;;5093102;28;20377;-44
2022/12/26 06:58:39;;;;;;;27.30;17.98;;;8.40;99.90;;;;;;5093075;27;20644;-46
2022/12/26 07:01:06;;;;;;;24.98;17.30;;;8.80;99.90;;;;;;5094394;28;20953;-45
2022/12/26 07:03:32;;;;;;;21.42;15.23;;;8.50;99.90;;;;;;5093469;28;20736;-44
2022/12/26 07:06:05;;;;;;;22.60;16.08;;;8.50;99.90;;;;;;5094104;28;20043;-44
2022/12/26 07:08:31;;;;;;;23.58;15.10;;;8.50;99.90;;;;;;5093962;28;20081;-46
2022/12/26 07:10:56;;;;;;;31.92;15.23;;;8.90;99.90;;;;;;5093432;27;20161;-44
2022/12/26 07:13:22;;;;;;;21.45;14.35;;;8.40;99.90;;;;;;5094436;28;20040;-44
2022/12/26 07:15:48;;;;;;;20.88;13.10;;;8.40;99.90;;;;;;5092030;28;20042;-44
2022/12/26 07:18:14;;;;;;;22.10;12.45;;;8.50;99.90;;;;;;5091165;28;20114;-45
2022/12/26 07:20:39;;;;;;;18.33;10.85;;;9.80;99.90;;;;;;5090873;28;20454;-46
2022/12/26 07:23:05;;;;;;;18.02;9.48;;;8.50;99.90;;;;;;5091408;28;20040;-45
2022/12/26 07:25:31;;;;;;;18.80;10.00;;;8.80;99.90;;;;;;5092377;28;20043;-44
2022/12/26 07:27:57;;;;;;;17.52;9.75;;;8.50;99.90;;;;;;5091181;28;20495;-48
2022/12/26 07:30:22;;;;;;;18.88;10.30;;;8.30;99.90;;;;;;5091404;28;20048;-47
2022/12/26 07:32:48;;;;;;;17.83;8.60;;;8.40;99.90;;;;;;5090642;28;20458;-44
2022/12/26 07:35:14;;;;;;;17.52;8.73;;;8.20;99.90;;;;;;5092789;28;20046;-45
2022/12/26 07:37:39;;;;;;;15.13;8.13;;;8.30;99.90;;;;;;5092438;27;20084;-45
2022/12/26 07:40:06;;;;;;;16.80;8.48;;;8.40;99.90;;;;;;5092836;28;20089;-43
2022/12/26 07:42:31;;;;;;;14.57;6.97;;;8.30;99.90;;;;;;5091548;28;21053;-44
2022/12/26 07:44:57;;;;;;;13.35;8.02;;;8.40;99.90;;;;;;5091694;28;20049;-46
2022/12/26 07:47:23;;;;;;;16.38;8.50;;;10.10;99.90;;;;;;5092049;28;20054;-45
2022/12/26 07:49:48;;;;;;;12.80;7.22;;;8.20;99.90;;;;;;5091444;28;20157;-46
2022/12/26 07:52:14;;;;;;;12.68;7.05;;;8.30;99.90;;;;;;5089940;28;20062;-46
2022/12/26 07:54:40;;;;;;;17.70;7.82;;;10.30;99.90;;;;;;5092243;28;20465;-44
2022/12/26 07:57:05;;;;;;;14.27;7.97;;;8.40;99.90;;;;;;5093403;28;20156;-46
2022/12/26 07:59:31;;;;;;;13.43;8.23;;;8.80;99.90;;;;;;5091130;28;20032;-44
2022/12/26 08:01:58;;;;;;;12.48;7.18;;;8.50;99.90;;;;;;5091277;28;20145;-44
2022/12/26 08:04:24;;;;;;;14.50;7.28;;;9.80;99.90;;;;;;5091124;28;20174;-47
2022/12/26 08:06:50;;;;;;;14.00;8.00;;;8.60;99.90;;;;;;5092647;28;20060;-47
2022/12/26 08:09:15;;;;;;;17.80;8.02;;;8.40;99.90;;;;;;5091017;28;20032;-46
2022/12/26 08:11:42;;;;;;;12.95;7.28;;;8.80;99.90;;;;;;5090321;28;20078;-45
2022/12/26 08:14:11;;;;;;;14.93;6.88;;;8.80;99.90;;;;;;5091735;28;21172;-44
2022/12/26 08:16:37;;;;;;;10.90;7.18;;;8.50;99.90;;;;;;5093590;28;20040;-46
2022/12/26 08:19:03;;;;;;;14.55;8.00;;;9.60;99.90;;;;;;5094287;27;20556;-44
2022/12/26 08:21:29;;;;;;;17.92;7.35;;;8.80;99.90;;;;;;5092393;28;20044;-48
2022/12/26 08:23:55;;;;;;;16.30;7.13;;;8.60;99.90;;;;;;5092454;28;20353;-44
2022/12/26 08:26:21;;;;;;;11.80;6.93;;;8.50;99.90;;;;;;5092686;28;20032;-47
2022/12/26 08:28:47;;;;;;;9.43;6.30;;;9.50;99.90;;;;;;5094300;27;20044;-44
2022/12/26 08:31:13;;;;;;;13.35;6.22;;;8.80;99.90;;;;;;5096692;27;20039;-45
2022/12/26 08:33:39;;;;;;;15.07;6.95;;;8.80;99.90;;;;;;5095307;27;20036;-44
2022/12/26 08:36:07;;;;;;;14.65;6.82;;;8.80;99.90;;;;;;5095831;27;20467;-44
2022/12/26 08:38:35;;;;;;;13.35;5.88;;;8.80;99.90;;;;;;5092224;27;20075;-45
2022/12/26 08:41:00;;;;;;;15.98;6.55;;;8.70;99.90;;;;;;5092282;27;20501;-48
2022/12/26 08:43:26;;;;;;;17.27;6.70;;;8.80;99.90;;;;;;5093362;27;20246;-45
2022/12/26 08:46:01;;;;;;;12.77;6.30;;;8.50;99.90;;;;;;5092539;27;20044;-45
2022/12/26 08:48:27;;;;;;;14.27;7.68;;;8.80;99.90;;;;;;5092378;28;20051;-45
2022/12/26 08:50:58;;;;;;;13.85;7.00;;;8.80;99.90;;;;;;5093175;27;21303;-46
2022/12/26 08:53:24;;;;;;;18.30;6.70;;;8.80;99.90;;;;;;5094530;27;20067;-48
2022/12/26 08:55:50;;;;;;;14.32;7.07;;;9.00;99.90;;;;;;5094444;27;20036;-44
2022/12/26 08:58:16;;;;;;;13.68;7.50;;;9.60;99.90;;;;;;5094080;27;20627;-45
2022/12/26 09:00:42;;;;;;;14.73;8.05;;;8.60;99.90;;;;;;5094395;27;20040;-45
2022/12/26 09:03:09;;;;;;;16.25;7.45;;;9.70;99.90;;;;;;5093216;27;20198;-47
2022/12/26 09:05:35;;;;;;;21.95;9.43;;;8.70;99.90;;;;;;5093143;28;21446;-45
2022/12/26 09:08:00;;;;;;;14.30;8.15;;;9.30;99.90;;;;;;5094144;27;20622;-47
2022/12/26 09:10:26;;;;;;;15.32;8.30;;;8.80;99.90;;;;;;5092725;27;20054;-45
2022/12/26 09:12:52;;;;;;;14.30;9.00;;;8.70;99.90;;;;;;5092905;27;20043;-49
2022/12/26 09:15:17;;;;;;;13.20;7.15;;;8.70;99.90;;;;;;5094106;27;20043;-45
2022/12/26 09:17:43;;;;;;;12.98;8.35;;;8.60;99.90;;;;;;5093884;28;20043;-47
2022/12/26 09:20:09;;;;;;;15.85;6.20;;;8.60;99.90;;;;;;5093963;27;20043;-46
2022/12/26 09:22:50;;;;;;;10.80;7.70;;;8.60;99.90;;;;;;5094590;27;20039;-46
2022/12/26 09:25:17;;;;;;;16.98;8.00;;;8.40;99.90;;;;;;5094400;27;20042;-45
2022/12/26 09:27:42;;;;;;;13.40;6.65;;;8.40;99.90;;;;;;5094859;27;20036;-46
2022/12/26 09:30:08;;;;;;;16.63;6.70;;;8.60;99.90;;;;;;5095451;27;20040;-44
2022/12/26 09:32:35;;;;;;;14.18;5.13;;;8.60;99.90;;;;;;5095578;28;20809;-49
2022/12/26 09:35:01;;;;;;;15.27;5.55;;;8.60;99.90;;;;;;5094504;27;20024;-49
2022/12/26 09:37:26;;;;;;;16.35;4.20;;;8.40;99.90;;;;;;5097651;27;20042;-45
2022/12/26 09:39:52;;;;;;;17.45;4.10;;;8.40;99.90;;;;;;5096436;27;20213;-46
2022/12/26 09:42:53;;;;;;;15.85;2.83;;;8.90;99.90;;;;;;5096510;27;20090;-46
2022/12/26 09:45:43;;;;;;;19.30;4.22;;;8.20;99.90;;;;;;5096826;27;20066;-46
2022/12/26 09:48:35;;;;;;;16.13;3.47;;;8.00;99.90;;;;;;5095536;27;20043;-45
2022/12/26 09:51:01;;;;;;;16.25;2.42;;;7.90;99.90;;;;;;5094885;27;20047;-47
2022/12/26 09:53:30;;;;;;;15.23;2.20;;;7.40;99.90;;;;;;5096215;27;20142;-47
2022/12/26 09:55:59;;;;;;;16.48;2.28;;;7.50;99.90;;;;;;5094972;27;20032;-50
2022/12/26 09:58:31;;;;;;;15.55;2.50;;;7.50;99.90;;;;;;5094870;27;20039;-45
2022/12/26 10:01:06;;;;;;;16.50;2.10;;;7.40;99.90;;;;;;5094305;27;22454;-47
2022/12/26 10:03:38;;;;;;;11.38;1.90;;;7.30;99.90;;;;;;5092940;27;20044;-47
2022/12/26 10:06:08;;;;;;;15.10;3.53;;;7.50;99.90;;;;;;5093656;27;20588;-46
2022/12/26 10:08:42;;;;;;;15.57;3.55;;;7.40;99.90;;;;;;5093516;27;20043;-45
2022/12/26 10:11:32;;;;;;;17.95;2.33;;;7.40;99.90;;;;;;5094013;27;20054;-47
2022/12/26 10:14:22;;;;;;;18.45;2.88;;;7.30;99.90;;;;;;5093850;27;20036;-45
2022/12/26 10:17:14;;;;;;;13.38;2.20;;;7.30;99.90;;;;;;5093224;27;20042;-47
2022/12/26 10:19:49;;;;;;;18.98;3.10;;;7.40;99.90;;;;;;5088789;27;20389;-47
2022/12/26 10:22:27;;;;;;;13.75;1.88;;;7.40;99.90;;;;;;5093903;27;20047;-46
2022/12/26 10:24:56;;;;;;;14.63;2.83;;;8.70;99.90;;;;;;5092110;27;20043;-48
2022/12/26 10:27:25;;;;;;;14.85;2.45;;;7.50;99.90;;;;;;5092610;27;20047;-45
2022/12/26 10:29:59;;;;;;;14.20;1.80;;;7.30;99.90;;;;;;5091997;28;20118;-45
2022/12/26 10:32:31;;;;;;;11.95;1.98;;;7.20;99.90;;;;;;5093043;27;20039;-49
2022/12/26 10:34:58;;;;;;;11.45;2.00;;;7.20;99.90;;;;;;5092620;27;20071;-45
2022/12/26 10:37:29;;;;;;;14.15;1.80;;;6.10;99.90;;;;;;5094085;27;20365;-45
2022/12/26 10:40:15;;;;;;;17.17;2.55;;;9.00;99.90;;;;;;5092454;28;20074;-44
2022/12/26 10:42:44;;;;;;;11.60;2.05;;;7.20;99.90;;;;;;5092918;27;20035;-44
2022/12/26 10:45:26;;;;;;;11.50;1.65;;;7.10;99.90;;;;;;5092049;27;20133;-47
2022/12/26 10:47:52;;;;;;;16.25;2.15;;;7.10;99.90;;;;;;5092235;27;20047;-44
2022/12/26 10:50:29;;;;;;;18.13;1.70;;;6.90;99.90;;;;;;5090655;27;20406;-44
2022/12/26 10:52:59;;;;;;;10.77;1.83;;;6.90;99.90;;;;;;5095309;27;20035;-44
2022/12/26 10:55:31;;;;;;;13.23;3.15;;;6.90;99.90;;;;;;5094175;28;20726;-44
2022/12/26 10:57:58;;;;;;;;;;;8.00;99.90;;;;;;5094057;28;20039;-45
2022/12/26 11:00:26;;;;;;;17.95;2.22;;;7.00;99.90;;;;;;5094621;28;19955;-44
2022/12/26 11:03:12;;;;;;;17.85;2.00;;;7.50;99.90;;;;;;5094014;27;20169;-45
2022/12/26 11:05:44;;;;;;;14.82;1.80;;;6.80;99.90;;;;;;5093326;28;20105;-47
2022/12/26 11:08:18;;;;;;;14.50;2.78;;;7.00;99.90;;;;;;5093891;27;20035;-47
2022/12/26 11:11:00;;;;;;;12.18;2.58;;;6.90;99.90;;;;;;5092904;28;20067;-48
2022/12/26 11:13:27;;;;;;;14.57;1.70;;;7.10;99.90;;;;;;5093303;27;20063;-44
2022/12/26 11:15:53;;;;;;;21.75;3.22;;;8.90;99.90;;;;;;5095003;28;20043;-45
2022/12/26 11:18:32;;;;;;;15.70;2.88;;;6.90;99.90;;;;;;5093838;28;20032;-47
2022/12/26 11:21:17;;;;;;;10.23;2.03;;;8.90;99.90;;;;;;5091563;27;20056;-44
2022/12/26 11:23:47;;;;;;;12.93;1.80;;;7.20;99.90;;;;;;5092168;27;20051;-44
2022/12/26 11:26:30;;;;;;;11.18;2.33;;;8.80;99.90;;;;;;5092070;28;20036;-46
2022/12/26 11:29:16;;;;;;;21.13;2.10;;;6.90;99.90;;;;;;5091283;28;20039;-44
2022/12/26 11:32:03;;;;;;;11.68;1.90;;;6.90;99.90;;;;;;5090172;28;20119;-45
2022/12/26 11:34:33;;;;;;;13.23;2.08;;;7.10;99.90;;;;;;5091492;28;20042;-45
2022/12/26 11:36:59;;;;;;;11.43;3.08;;;6.80;99.90;;;;;;5091977;28;20567;-45
2022/12/26 11:39:32;;;;;;;13.80;1.52;;;7.00;99.90;;;;;;5091657;28;20039;-47
2022/12/26 11:41:58;;;;;;;11.38;1.60;;;7.20;99.90;;;;;;5090166;28;20832;-44
2022/12/26 11:44:39;;;;;;;16.95;1.73;;;6.90;99.90;;;;;;5092643;28;20048;-49
2022/12/26 11:47:10;;;;;;;14.97;2.07;;;7.00;99.90;;;;;;5091646;28;20040;-46
2022/12/26 11:49:59;;;;;;;20.10;2.58;;;6.90;99.90;;;;;;5091442;28;20044;-44
2022/12/26 11:52:36;;;;;;;15.27;2.60;;;6.80;99.90;;;;;;5092172;28;20645;-49
2022/12/26 11:55:28;;;;;;;15.38;1.80;;;6.90;99.90;;;;;;5093323;28;20122;-44
2022/12/26 11:58:08;;;;;;;11.35;1.90;;;7.40;99.90;;;;;;5076531;28;21246;-44
2022/12/26 12:00:34;;;;;;;16.60;2.20;;;7.00;99.90;;;;;;5090729;28;20036;-45
2022/12/26 12:03:02;;;;;;;13.50;2.28;;;6.90;99.90;;;;;;5090372;28;20720;-45
2022/12/26 12:05:37;;;;;;;15.25;2.17;;;6.90;99.90;;;;;;5096099;27;20104;-44
2022/12/26 12:08:31;;;;;;;14.93;2.88;;;7.00;99.90;;;;;;5097482;27;20058;-46
2022/12/26 12:11:25;;;;;;;22.65;4.60;;;6.90;99.90;;;;;;5091515;27;20047;-46
2022/12/26 12:14:17;;;;;;;22.35;4.47;;;7.00;99.90;;;;;;5096044;28;20126;-45
2022/12/26 12:17:23;;;;;;;18.40;2.75;;;7.00;99.90;;;;;;5095491;27;20050;-45
2022/12/26 12:20:05;;;;;;;13.52;2.10;;;7.00;99.90;;;;;;5095559;27;20038;-44
2022/12/26 12:23:08;;;;;;;14.25;2.05;;;7.00;99.90;;;;;;5095447;27;20092;-43
2022/12/26 12:25:48;;;;;;;13.10;2.13;;;7.00;99.90;;;;;;5096269;27;20582;-45
2022/12/26 12:28:52;;;;;;;11.38;1.55;;;7.10;99.90;;;;;;5096574;27;20031;-49
2022/12/26 12:32:07;;;;;;;16.30;2.40;;;6.90;99.90;;;;;;5089649;27;20044;-47
2022/12/26 12:34:33;;;;;;;16.30;2.58;;;6.70;99.90;;;;;;5085083;27;20134;-46
2022/12/26 12:37:34;;;;;;;19.17;2.30;;;6.80;99.90;;;;;;5096100;27;20032;-44
2022/12/26 12:40:39;;;;;;;18.23;3.47;;;6.70;99.90;;;;;;5073822;28;20150;-44
2022/12/26 12:43:26;;;;;;;14.50;3.60;;;6.70;99.90;;;;;;5094572;27;20047;-48
2022/12/26 12:46:07;;;;;;;18.27;2.55;;;6.80;99.90;;;;;;5094969;27;20050;-43
2022/12/26 12:49:04;;;;;;;21.02;2.58;;;7.70;99.90;;;;;;5094797;27;20455;-43
2022/12/26 12:52:02;;;;;;;17.98;3.10;;;6.70;99.90;;;;;;5088890;27;20051;-44
2022/12/26 12:54:43;;;;;;;22.23;3.95;;;6.50;99.90;;;;;;5094048;28;20048;-44
2022/12/26 12:57:32;;;;;;;17.67;3.08;;;6.60;99.90;;;;;;5094389;27;20035;-47
2022/12/26 13:00:03;;;;;;;17.88;2.15;;;6.70;99.90;;;;;;5088313;28;20040;-45
2022/12/26 13:02:46;;;;;;;13.73;2.30;;;6.60;99.90;;;;;;5093820;28;20385;-43
2022/12/26 13:05:22;;;;;;;15.85;3.03;;;6.60;99.90;;;;;;5093266;28;20293;-44
2022/12/26 13:07:57;;;;;;;22.35;3.05;;;6.50;99.90;;;;;;5094781;27;20036;-47
2022/12/26 13:10:37;;;;;;;16.98;2.70;;;6.40;99.90;;;;;;5092716;27;20173;-46
2022/12/26 13:13:40;;;;;;;12.02;2.72;;;6.60;99.90;;;;;;5093599;27;20038;-45
2022/12/26 13:16:15;;;;;;;12.75;1.95;;;6.60;99.90;;;;;;5093010;28;20039;-46
2022/12/26 13:19:00;;;;;;;18.67;3.70;;;8.30;99.90;;;;;;5094321;27;20040;-50
2022/12/26 13:21:29;;;;;;;17.13;3.05;;;6.60;99.90;;;;;;5094690;27;20035;-46
2022/12/26 13:24:26;;;;;;;13.98;2.72;;;6.50;99.90;;;;;;5094336;27;20043;-46
2022/12/26 13:27:10;;;;;;;13.88;1.95;;;6.70;99.90;;;;;;5086350;28;20071;-44
2022/12/26 13:29:39;;;;;;;15.68;1.98;;;6.60;99.90;;;;;;5094777;27;20035;-45
2022/12/26 13:32:23;;;;;;;19.25;2.78;;;6.60;99.90;;;;;;5093594;27;20043;-44
2022/12/26 13:34:50;;;;;;;22.10;2.35;;;6.30;99.90;;;;;;5094824;28;20458;-46
2022/12/26 13:37:37;;;;;;;17.25;2.33;;;6.60;99.90;;;;;;5095224;27;20492;-46
2022/12/26 13:40:28;;;;;;;17.77;2.05;;;6.50;99.90;;;;;;5094392;27;20046;-45
2022/12/26 13:45:49;;;;;;;15.43;2.50;;;6.40;99.90;;;;;;5093057;28;20047;-46
2022/12/26 13:48:18;;;;;;;11.05;1.98;;;6.30;99.90;;;;;;5092338;27;20388;-44
2022/12/26 13:50:48;;;;;;;16.00;2.45;;;6.20;99.90;;;;;;5093460;27;20039;-46
2022/12/26 13:53:40;;;;;;;14.05;2.20;;;6.20;99.90;;;;;;5091858;27;20038;-47
2022/12/26 13:56:15;;;;;;;11.15;1.80;;;6.20;99.90;;;;;;5092708;27;20269;-44
2022/12/26 13:59:01;;;;;;;14.85;2.10;;;6.10;99.90;;;;;;5092396;27;20039;-46
2022/12/26 14:01:55;;;;;;;13.85;2.22;;;6.10;99.90;;;;;;5091955;27;20080;-44
2022/12/26 14:04:42;;;;;;;11.13;2.08;;;6.00;99.90;;;;;;5091587;27;20043;-44
2022/12/26 14:07:26;;;;;;;15.25;2.95;;;5.90;99.90;;;;;;5092246;28;20082;-45
2022/12/26 14:10:03;;;;;;;14.93;2.03;;;6.10;99.90;;;;;;5092637;27;20054;-44
2022/12/26 14:12:56;;;;;;;16.55;2.72;;;6.00;99.90;;;;;;5091823;27;20039;-44
2022/12/26 14:15:46;;;;;;;12.85;2.20;;;5.90;99.90;;;;;;5090979;27;20035;-48
2022/12/26 14:18:27;;;;;;;20.33;3.67;;;5.80;99.90;;;;;;5092282;27;20096;-45
2022/12/26 14:21:14;;;;;;;11.73;1.75;;;5.90;99.90;;;;;;5092388;27;20703;-45
2022/12/26 14:23:48;;;;;;;12.02;1.92;;;5.80;99.90;;;;;;5092127;28;20052;-49
2022/12/26 14:26:39;;;;;;;14.80;2.80;;;5.70;99.90;;;;;;5091252;28;20043;-43
2022/12/26 14:29:37;;;;;;;10.88;1.55;;;5.70;99.90;;;;;;5092513;27;20047;-44
2022/12/26 14:32:17;;;;;;;16.25;2.30;;;5.50;99.90;;;;;;5092858;27;20043;-45
2022/12/26 14:35:18;;;;;;;19.88;3.13;;;5.60;99.90;;;;;;5092984;27;20052;-46
2022/12/26 14:38:21;;;;;;;13.10;2.17;;;5.60;99.90;;;;;;5068533;27;20047;-46
2022/12/26 14:44:14;;;;;;;11.93;2.40;;;5.60;99.90;;;;;;5088752;28;20060;-46
2022/12/26 14:46:40;;;;;;;15.15;2.28;;;5.50;99.90;;;;;;5092403;28;20686;-43
2022/12/26 14:49:22;;;;;;;17.90;2.65;;;5.60;99.90;;;;;;5093735;27;20046;-44
2022/12/26 14:51:48;;;;;;;;;;;5.60;99.90;;;;;;5093010;27;20059;-47
2022/12/26 14:54:15;;;;;;;11.82;1.95;;;;;;;;;;5089906;27;19923;-46
2022/12/26 14:56:41;;;;;;;11.13;2.35;;;5.50;99.90;;;;;;5092286;27;20051;-44
2022/12/26 14:59:34;;;;;;;23.17;4.95;;;5.30;99.90;;;;;;5090503;27;20051;-47
2022/12/26 15:02:26;;;;;;;21.05;3.65;;;5.50;99.90;;;;;;5089276;27;20101;-45
2022/12/26 15:05:01;;;;;;;16.25;3.50;;;5.40;99.90;;;;;;5094501;27;20046;-46
2022/12/26 15:07:36;;;;;;;19.48;6.47;;;5.30;99.90;;;;;;5094314;27;20134;-44
2022/12/26 15:10:10;;;;;;;18.27;3.92;;;5.20;99.90;;;;;;5091283;27;20503;-44
2022/12/26 15:12:36;;;;;;;19.65;3.97;;;;;;;;;;5091716;27;20054;-44
2022/12/26 15:15:02;;;;;;;17.30;3.30;;;;;;;;;;5091565;28;20059;-44
2022/12/26 15:18:14;;;;;;;15.63;2.45;;;5.20;99.90;;;;;;5094233;27;20512;-49
2022/12/26 15:21:01;;;;;;;22.02;2.58;;;5.10;99.90;;;;;;5092878;28;20040;-43
2022/12/26 15:23:54;;;;;;;12.30;2.38;;;5.10;99.90;;;;;;5092524;28;20465;-45
2022/12/26 15:26:20;;;;;;;18.13;2.13;;;;;;;;;;5091911;28;20088;-46